Time;durP1;ratioP1;P1;durP2;ratioP2;P2;SDS_P1;SDS_P2;PMS_P1;PMS_P2;Temp;Humidity;BMP_temperature;BMP_pressure;BME280_temperature;BME280_humidity;BME280_pressure;Samples;Min_cycle;Max_cycle;Signal;HPM_P1;HPM_P2
2023/09/29 00:00:20;;;;;;;;;4.33;4.33;;;;;;;;5022007;28;45353;-76
2023/09/29 00:02:47;;;;;;;;;4.00;3.00;;;;;;;;5022523;28;45318;-76
2023/09/29 00:05:14;;;;;;;;;5.00;5.00;;;;;;;;5021951;28;45479;-75
2023/09/29 00:07:39;;;;;;;;;3.33;3.00;;;;;;;;5003853;28;47661;-75
2023/09/29 00:10:08;;;;;;;;;6.33;6.33;;;;;;;;5021837;28;45243;-76
2023/09/29 00:12:33;;;;;;;;;5.00;5.00;;;;;;;;5022174;28;45258;-75
2023/09/29 00:14:58;;;;;;;;;5.75;5.75;;;;;;;;5040719;28;45354;-75
2023/09/29 00:17:23;;;;;;;;;4.67;4.67;;;;;;;;5041535;28;46158;-76
2023/09/29 00:19:49;;;;;;;;;7.00;5.00;;;;;;;;5041349;28;45417;-75
2023/09/29 00:22:14;;;;;;;;;3.67;3.67;;;;;;;;5041954;28;45293;-75
2023/09/29 00:24:39;;;;;;;;;4.67;4.67;;;;;;;;5041556;28;45545;-76
2023/09/29 00:27:04;;;;;;;;;3.33;3.33;;;;;;;;5040845;28;45635;-76
2023/09/29 00:29:30;;;;;;;;;8.00;6.00;;;;;;;;5023086;28;45548;-75
2023/09/29 00:31:55;;;;;;;;;3.67;3.00;;;;;;;;5041181;28;45423;-75
2023/09/29 00:34:20;;;;;;;;;3.00;3.00;;;;;;;;5040928;28;45320;-76
2023/09/29 00:36:47;;;;;;;;;5.00;5.00;;;;;;;;5041154;28;46438;-75
2023/09/29 00:39:13;;;;;;;;;6.67;6.67;;;;;;;;5040949;28;45316;-76
2023/09/29 00:41:39;;;;;;;;;5.33;5.33;;;;;;;;5023395;28;45270;-75
2023/09/29 00:44:06;;;;;;;;;4.00;4.00;;;;;;;;5041190;28;45399;-76
2023/09/29 00:46:31;;;;;;;;;6.67;5.00;;;;;;;;5040893;28;46478;-75
2023/09/29 00:48:57;;;;;;;;;4.00;4.00;;;;;;;;5040850;28;45344;-76
2023/09/29 00:51:22;;;;;;;;;5.00;4.00;;;;;;;;5041097;28;45331;-76
2023/09/29 00:53:48;;;;;;;;;6.00;6.00;;;;;;;;5041187;28;45355;-76
2023/09/29 00:56:14;;;;;;;;;5.67;5.67;;;;;;;;5039948;28;47591;-75
2023/09/29 00:58:39;;;;;;;;;6.67;6.67;;;;;;;;5040912;28;45340;-76
2023/09/29 01:01:07;;;;;;;;;3.00;3.00;;;;;;;;5040847;28;45540;-76
2023/09/29 01:03:32;;;;;;;;;6.00;6.00;;;;;;;;5040958;28;45341;-76
2023/09/29 01:05:58;;;;;;;;;4.33;4.33;;;;;;;;5022737;28;48193;-76
2023/09/29 01:08:23;;;;;;;;;5.00;4.33;;;;;;;;5040921;28;45262;-76
2023/09/29 01:10:49;;;;;;;;;5.00;5.00;;;;;;;;5040455;28;45243;-75
2023/09/29 01:13:15;;;;;;;;;7.33;4.67;;;;;;;;5040720;28;45250;-75
2023/09/29 01:15:40;;;;;;;;;4.00;4.00;;;;;;;;5040355;28;46046;-75
2023/09/29 01:18:06;;;;;;;;;3.00;3.00;;;;;;;;5022520;28;45385;-75
2023/09/29 01:20:32;;;;;;;;;5.67;5.00;;;;;;;;5040790;28;45317;-76
2023/09/29 01:23:00;;;;;;;;;4.33;4.33;;;;;;;;5039114;28;46096;-76
2023/09/29 01:25:25;;;;;;;;;6.33;4.67;;;;;;;;5039646;28;45426;-76
2023/09/29 01:27:50;;;;;;;;;7.00;6.00;;;;;;;;5022385;28;45292;-77
2023/09/29 01:30:18;;;;;;;;;5.67;5.67;;;;;;;;5040467;28;45293;-76
2023/09/29 01:32:46;;;;;;;;;5.00;5.00;;;;;;;;5040306;28;45538;-76
2023/09/29 01:35:11;;;;;;;;;6.00;5.33;;;;;;;;5021907;28;48046;-77
2023/09/29 01:37:38;;;;;;;;;7.00;7.00;;;;;;;;5040153;28;45328;-76
2023/09/29 01:40:05;;;;;;;;;6.00;5.67;;;;;;;;5039145;28;45410;-75
2023/09/29 01:42:30;;;;;;;;;5.67;5.67;;;;;;;;5040334;28;45288;-76
2023/09/29 01:44:55;;;;;;;;;1.33;1.00;;;;;;;;5040092;28;45371;-75
2023/09/29 01:47:21;;;;;;;;;5.67;5.67;;;;;;;;5040138;28;45372;-76
2023/09/29 01:49:48;;;;;;;;;5.33;5.33;;;;;;;;5040287;28;45258;-76
2023/09/29 01:52:14;;;;;;;;;7.00;7.00;;;;;;;;5038795;28;46541;-76
2023/09/29 01:54:39;;;;;;;;;4.33;4.33;;;;;;;;5040091;28;46290;-76
2023/09/29 01:57:04;;;;;;;;;8.00;8.00;;;;;;;;5022174;28;45232;-76
2023/09/29 01:59:30;;;;;;;;;7.33;7.33;;;;;;;;5040049;28;45233;-76
2023/09/29 02:01:56;;;;;;;;;6.00;6.00;;;;;;;;5022078;28;46097;-75
2023/09/29 02:04:21;;;;;;;;;7.00;7.00;;;;;;;;5039568;28;45620;-76
2023/09/29 02:06:46;;;;;;;;;10.67;10.67;;;;;;;;5039931;28;45382;-75
2023/09/29 02:09:11;;;;;;;;;6.67;6.00;;;;;;;;5022214;28;45360;-75
2023/09/29 02:11:39;;;;;;;;;7.33;7.33;;;;;;;;5039618;28;45389;-77
2023/09/29 02:14:04;;;;;;;;;5.00;5.00;;;;;;;;5039740;28;45257;-76
2023/09/29 02:16:30;;;;;;;;;7.00;7.00;;;;;;;;5039575;28;45372;-76
2023/09/29 02:18:56;;;;;;;;;5.33;5.33;;;;;;;;5039697;28;45355;-75
2023/09/29 02:21:22;;;;;;;;;6.00;5.00;;;;;;;;5039446;28;45226;-76
2023/09/29 02:23:48;;;;;;;;;7.00;7.00;;;;;;;;5039547;28;46058;-76
2023/09/29 02:26:13;;;;;;;;;6.33;6.00;;;;;;;;5021726;28;45241;-76
2023/09/29 02:28:38;;;;;;;;;7.00;7.00;;;;;;;;5036491;28;45327;-76
2023/09/29 02:31:03;;;;;;;;;8.00;7.67;;;;;;;;5019668;28;45443;-75
2023/09/29 02:33:30;;;;;;;;;5.67;5.00;;;;;;;;5019366;28;45985;-76
2023/09/29 02:35:56;;;;;;;;;8.33;7.00;;;;;;;;4999798;28;45257;-76
2023/09/29 02:38:21;;;;;;;;;9.00;7.67;;;;;;;;4999825;28;45383;-76
2023/09/29 02:40:47;;;;;;;;;8.00;7.00;;;;;;;;4999677;28;45278;-75
2023/09/29 02:43:12;;;;;;;;;6.00;6.00;;;;;;;;4978765;28;47116;-75
2023/09/29 02:45:40;;;;;;;;;6.67;6.67;;;;;;;;4997120;28;45377;-75
2023/09/29 02:48:06;;;;;;;;;7.00;7.00;;;;;;;;4999463;28;45485;-76
2023/09/29 02:50:35;;;;;;;;;7.33;7.33;;;;;;;;4999506;28;45332;-76
2023/09/29 02:53:00;;;;;;;;;6.67;6.67;;;;;;;;4999356;28;46211;-76
2023/09/29 02:55:25;;;;;;;;;9.00;6.33;;;;;;;;5002009;28;45229;-76
2023/09/29 02:57:51;;;;;;;;;7.00;7.00;;;;;;;;5019376;28;45388;-76
2023/09/29 03:00:18;;;;;;;;;6.33;6.33;;;;;;;;5019031;28;45476;-76
2023/09/29 03:02:44;;;;;;;;;7.00;7.00;;;;;;;;5001442;28;47412;-75
2023/09/29 03:05:09;;;;;;;;;6.67;6.67;;;;;;;;5019109;28;45372;-75
2023/09/29 03:07:35;;;;;;;;;5.67;5.33;;;;;;;;5001627;28;45378;-76
2023/09/29 03:10:00;;;;;;;;;8.00;6.00;;;;;;;;5001454;28;47198;-76
2023/09/29 03:12:26;;;;;;;;;6.67;6.67;;;;;;;;5019210;28;46477;-75
2023/09/29 03:14:52;;;;;;;;;4.00;4.00;;;;;;;;5001533;28;46023;-76
2023/09/29 03:17:17;;;;;;;;;5.00;5.00;;;;;;;;5019259;28;45322;-77
2023/09/29 03:19:43;;;;;;;;;5.00;4.75;;;;;;;;5018920;28;45479;-76
2023/09/29 03:22:11;;;;;;;;;3.50;3.50;;;;;;;;5001013;28;47851;-76
2023/09/29 03:24:37;;;;;;;;;7.00;5.00;;;;;;;;5000919;28;45574;-76
2023/09/29 03:27:02;;;;;;;;;4.00;4.00;;;;;;;;5019149;28;45352;-75
2023/09/29 03:29:28;;;;;;;;;4.67;4.67;;;;;;;;5018881;28;45353;-76
2023/09/29 03:31:54;;;;;;;;;5.25;3.75;;;;;;;;5000946;28;48472;-76
2023/09/29 03:34:20;;;;;;;;;3.25;3.00;;;;;;;;5018367;28;45804;-76
2023/09/29 03:36:45;;;;;;;;;4.00;4.00;;;;;;;;5018993;28;45361;-76
2023/09/29 03:39:10;;;;;;;;;5.50;4.25;;;;;;;;5000904;28;46066;-75
2023/09/29 03:41:36;;;;;;;;;3.33;3.00;;;;;;;;5018780;28;45162;-76
2023/09/29 03:44:01;;;;;;;;;3.50;3.00;;;;;;;;5000953;28;45355;-75
2023/09/29 03:46:28;;;;;;;;;3.75;3.75;;;;;;;;5017598;28;45240;-76
2023/09/29 03:48:54;;;;;;;;;3.33;3.33;;;;;;;;5019178;28;45209;-76
2023/09/29 03:51:20;;;;;;;;;3.00;3.00;;;;;;;;5021864;28;46192;-76
2023/09/29 03:53:45;;;;;;;;;4.00;4.00;;;;;;;;5022219;28;45337;-77
2023/09/29 03:56:10;;;;;;;;;5.67;4.00;;;;;;;;5004031;28;45270;-76
2023/09/29 03:58:37;;;;;;;;;3.25;3.25;;;;;;;;5004026;28;46269;-77
2023/09/29 04:01:03;;;;;;;;;4.00;4.00;;;;;;;;5021602;28;45380;-76
2023/09/29 04:03:28;;;;;;;;;3.00;2.75;;;;;;;;5003769;28;46066;-75
2023/09/29 04:05:53;;;;;;;;;3.00;3.00;;;;;;;;5021672;28;45566;-77
2023/09/29 04:08:19;;;;;;;;;4.67;4.67;;;;;;;;5003746;28;46180;-76
2023/09/29 04:10:44;;;;;;;;;4.67;4.67;;;;;;;;5021760;28;46682;-75
2023/09/29 04:13:09;;;;;;;;;3.33;3.33;;;;;;;;5021909;28;45360;-76
2023/09/29 04:15:35;;;;;;;;;2.00;2.00;;;;;;;;5003835;28;45503;-75
2023/09/29 04:18:00;;;;;;;;;3.33;3.33;;;;;;;;5021203;28;45388;-76
2023/09/29 04:20:25;;;;;;;;;2.33;2.33;;;;;;;;5021516;28;46278;-76
2023/09/29 04:22:50;;;;;;;;;3.00;3.00;;;;;;;;5021871;28;45322;-76
2023/09/29 04:25:16;;;;;;;;;3.00;3.00;;;;;;;;5004118;28;45349;-76
2023/09/29 04:27:41;;;;;;;;;4.00;3.00;;;;;;;;5021572;28;45361;-76
2023/09/29 04:30:08;;;;;;;;;3.33;3.00;;;;;;;;5003421;28;47626;-75
2023/09/29 04:32:33;;;;;;;;;5.33;4.00;;;;;;;;5020245;28;45250;-75
2023/09/29 04:34:58;;;;;;;;;4.00;4.00;;;;;;;;5033006;28;45340;-76
2023/09/29 04:37:23;;;;;;;;;3.33;3.33;;;;;;;;5039838;28;46230;-76
2023/09/29 04:39:49;;;;;;;;;5.00;4.00;;;;;;;;5041378;28;45273;-75
2023/09/29 04:42:14;;;;;;;;;4.00;3.67;;;;;;;;5039916;28;45322;-76
2023/09/29 04:44:40;;;;;;;;;4.00;4.00;;;;;;;;5021093;28;45294;-76
2023/09/29 04:47:06;;;;;;;;;3.67;2.33;;;;;;;;5040811;28;45507;-75
2023/09/29 04:49:31;;;;;;;;;5.00;4.00;;;;;;;;5022157;28;47568;-76
2023/09/29 04:51:56;;;;;;;;;5.00;4.00;;;;;;;;5022041;28;46243;-76
2023/09/29 04:54:22;;;;;;;;;6.00;6.00;;;;;;;;5040312;28;45367;-75
2023/09/29 04:56:47;;;;;;;;;4.00;4.00;;;;;;;;5040894;28;45317;-77
2023/09/29 04:59:12;;;;;;;;;3.00;2.00;;;;;;;;5041015;28;46569;-76
2023/09/29 05:01:38;;;;;;;;;5.00;5.00;;;;;;;;5039118;28;45392;-76
2023/09/29 05:04:03;;;;;;;;;5.67;4.33;;;;;;;;5040936;28;45375;-76
2023/09/29 05:06:29;;;;;;;;;3.00;3.00;;;;;;;;5039645;28;45466;-75
2023/09/29 05:08:54;;;;;;;;;4.00;3.67;;;;;;;;5040257;28;45554;-75
2023/09/29 05:11:23;;;;;;;;;3.00;3.00;;;;;;;;5040464;28;45374;-76
2023/09/29 05:13:49;;;;;;;;;3.67;3.67;;;;;;;;5040892;28;45294;-75
2023/09/29 05:16:14;;;;;;;;;4.00;4.00;;;;;;;;5022571;28;46872;-74
2023/09/29 05:18:39;;;;;;;;;4.00;4.00;;;;;;;;5022400;28;47219;-74
2023/09/29 05:21:04;;;;;;;;;4.00;4.00;;;;;;;;5040454;28;45209;-75
2023/09/29 05:23:29;;;;;;;;;4.67;3.00;;;;;;;;5022363;28;45201;-75
2023/09/29 05:25:55;;;;;;;;;4.33;3.00;;;;;;;;5040406;28;45550;-76
2023/09/29 05:28:20;;;;;;;;;5.67;5.67;;;;;;;;5040369;28;46398;-75
2023/09/29 05:30:53;;;;;;;;;5.75;3.25;;;;;;;;5039252;28;45659;-75
2023/09/29 05:33:18;;;;;;;;;6.75;4.75;;;;;;;;5040391;28;45221;-75
2023/09/29 05:35:43;;;;;;;;;4.33;4.33;;;;;;;;5022129;28;46523;-75
2023/09/29 05:38:08;;;;;;;;;5.67;3.67;;;;;;;;5040414;28;46304;-75
2023/09/29 05:40:34;;;;;;;;;4.67;4.67;;;;;;;;5040350;28;45353;-75
2023/09/29 05:42:59;;;;;;;;;6.33;6.00;;;;;;;;5039861;28;45494;-75
2023/09/29 05:45:24;;;;;;;;;5.67;4.67;;;;;;;;5039737;28;46424;-74
2023/09/29 05:47:51;;;;;;;;;7.33;6.00;;;;;;;;5039971;28;46186;-75
2023/09/29 05:50:16;;;;;;;;;6.00;6.00;;;;;;;;5040210;28;45641;-78
2023/09/29 05:52:42;;;;;;;;;4.00;4.00;;;;;;;;5040490;28;45312;-79
2023/09/29 05:55:08;;;;;;;;;5.33;4.00;;;;;;;;5040390;28;45394;-80
2023/09/29 05:57:33;;;;;;;;;5.33;5.00;;;;;;;;5040264;28;45474;-79
2023/09/29 05:59:59;;;;;;;;;4.00;4.00;;;;;;;;5022092;28;45858;-80
2023/09/29 06:02:24;;;;;;;;;7.00;5.00;;;;;;;;5042047;28;45363;-78
2023/09/29 06:04:49;;;;;;;;;5.33;4.33;;;;;;;;5020567;28;46443;-77
2023/09/29 06:07:14;;;;;;;;;6.00;4.00;;;;;;;;5039842;28;45467;-77
2023/09/29 06:09:40;;;;;;;;;6.33;5.33;;;;;;;;5039123;28;45285;-78
2023/09/29 06:12:05;;;;;;;;;6.67;6.00;;;;;;;;5021728;28;45474;-78
2023/09/29 06:14:32;;;;;;;;;4.75;4.75;;;;;;;;5040403;28;46062;-78
2023/09/29 06:16:57;;;;;;;;;4.67;4.67;;;;;;;;5039294;28;46171;-79
2023/09/29 06:19:23;;;;;;;;;5.75;5.25;;;;;;;;5038740;28;45467;-78
2023/09/29 06:21:48;;;;;;;;;8.75;7.00;;;;;;;;5038693;28;45359;-79
2023/09/29 06:24:13;;;;;;;;;10.67;9.00;;;;;;;;5037858;28;45261;-76
2023/09/29 06:26:38;;;;;;;;;8.67;7.00;;;;;;;;5037957;28;46424;-77
2023/09/29 06:29:05;;;;;;;;;4.75;4.50;;;;;;;;5038276;28;45236;-78
2023/09/29 06:31:31;;;;;;;;;7.00;4.00;;;;;;;;5020405;28;45385;-79
2023/09/29 06:33:56;;;;;;;;;6.33;5.00;;;;;;;;5038850;28;45456;-79
2023/09/29 06:36:21;;;;;;;;;5.00;5.00;;;;;;;;5038640;28;45636;-79
2023/09/29 06:38:46;;;;;;;;;5.75;5.00;;;;;;;;5038981;28;45262;-79
2023/09/29 06:41:11;;;;;;;;;7.67;6.33;;;;;;;;5037089;28;45344;-79
2023/09/29 06:43:37;;;;;;;;;15.00;12.00;;;;;;;;5037397;28;45297;-78
2023/09/29 06:46:02;;;;;;;;;21.00;14.00;;;;;;;;5036895;28;46082;-79
2023/09/29 06:48:27;;;;;;;;;12.33;8.00;;;;;;;;5036992;28;45340;-80
2023/09/29 06:50:53;;;;;;;;;15.00;12.00;;;;;;;;5036238;28;45504;-79
2023/09/29 06:53:18;;;;;;;;;8.33;7.33;;;;;;;;5037993;28;45613;-79
2023/09/29 06:55:43;;;;;;;;;6.33;5.67;;;;;;;;5038991;28;45372;-80
2023/09/29 06:58:09;;;;;;;;;5.67;3.67;;;;;;;;5038989;28;45471;-78
2023/09/29 07:00:34;;;;;;;;;5.75;4.75;;;;;;;;5020501;28;46279;-77
2023/09/29 07:02:59;;;;;;;;;15.50;9.75;;;;;;;;5037387;28;46317;-77
2023/09/29 07:05:24;;;;;;;;;7.00;4.25;;;;;;;;5038945;28;46041;-76
2023/09/29 07:07:49;;;;;;;;;27.67;20.33;;;;;;;;5039292;28;45371;-79
2023/09/29 07:10:15;;;;;;;;;8.25;7.50;;;;;;;;5038950;28;45374;-78
2023/09/29 07:12:40;;;;;;;;;6.00;5.50;;;;;;;;5020820;28;45563;-78
2023/09/29 07:15:06;;;;;;;;;8.75;8.75;;;;;;;;5037764;28;46141;-78
2023/09/29 07:17:31;;;;;;;;;10.00;8.00;;;;;;;;5018229;28;45390;-79
2023/09/29 07:19:56;;;;;;;;;8.67;8.67;;;;;;;;5035846;28;45352;-79
2023/09/29 07:22:21;;;;;;;;;8.00;7.67;;;;;;;;5036117;28;45650;-78
2023/09/29 07:24:46;;;;;;;;;7.67;7.00;;;;;;;;5013555;28;47353;-79
2023/09/29 07:27:12;;;;;;;;;8.33;7.33;;;;;;;;5040383;28;45569;-78
2023/09/29 07:29:37;;;;;;;;;11.67;8.33;;;;;;;;5037288;28;45496;-78
2023/09/29 07:32:02;;;;;;;;;7.67;7.00;;;;;;;;5041180;28;46076;-77
2023/09/29 07:34:29;;;;;;;;;7.75;6.75;;;;;;;;5041333;28;46492;-78
2023/09/29 07:36:56;;;;;;;;;9.00;7.00;;;;;;;;5041144;28;45505;-79
2023/09/29 07:39:21;;;;;;;;;10.67;8.00;;;;;;;;5036815;28;45342;-79
2023/09/29 07:41:47;;;;;;;;;7.00;6.00;;;;;;;;5005961;28;46349;-79
2023/09/29 07:44:13;;;;;;;;;10.67;6.00;;;;;;;;5020545;28;45409;-79
2023/09/29 07:46:38;;;;;;;;;19.33;15.33;;;;;;;;5002157;28;45881;-79
2023/09/29 07:49:03;;;;;;;;;7.67;6.67;;;;;;;;5003692;28;45401;-79
2023/09/29 07:51:29;;;;;;;;;10.25;7.00;;;;;;;;5001298;28;46106;-80
2023/09/29 07:53:54;;;;;;;;;19.33;16.00;;;;;;;;5020728;28;46015;-79
2023/09/29 07:56:19;;;;;;;;;5.50;3.50;;;;;;;;5020708;28;45234;-79
2023/09/29 07:58:44;;;;;;;;;21.33;13.67;;;;;;;;5017709;28;46743;-79
2023/09/29 08:01:10;;;;;;;;;6.67;6.67;;;;;;;;5021004;28;45397;-80
2023/09/29 08:03:35;;;;;;;;;4.67;4.00;;;;;;;;5018572;28;45887;-79
2023/09/29 08:06:01;;;;;;;;;5.00;5.00;;;;;;;;5014517;28;45373;-79
2023/09/29 08:08:26;;;;;;;;;35.00;25.67;;;;;;;;4999312;28;45332;-79
2023/09/29 08:10:52;;;;;;;;;7.33;6.33;;;;;;;;5020865;28;45409;-79
2023/09/29 08:13:18;;;;;;;;;2.00;1.00;;;;;;;;5020892;28;45304;-80
2023/09/29 08:15:43;;;;;;;;;3.75;3.75;;;;;;;;5001985;28;45423;-80
2023/09/29 08:18:09;;;;;;;;;7.00;6.00;;;;;;;;5020547;28;45482;-80
2023/09/29 08:20:34;;;;;;;;;5.25;4.25;;;;;;;;5019066;28;45460;-78
2023/09/29 08:22:59;;;;;;;;;2.25;2.25;;;;;;;;5020167;28;45299;-77
2023/09/29 08:25:25;;;;;;;;;3.00;3.00;;;;;;;;5017090;28;45682;-78
2023/09/29 08:27:50;;;;;;;;;5.75;3.50;;;;;;;;5000285;28;45242;-79
2023/09/29 08:30:16;;;;;;;;;3.25;3.00;;;;;;;;5019400;28;45214;-79
2023/09/29 08:32:43;;;;;;;;;2.75;2.75;;;;;;;;5020458;28;45903;-79
2023/09/29 08:35:12;;;;;;;;;3.00;3.00;;;;;;;;5019892;28;45376;-79
2023/09/29 08:37:38;;;;;;;;;3.50;3.50;;;;;;;;5020520;28;45292;-78
2023/09/29 08:40:03;;;;;;;;;3.50;1.00;;;;;;;;5001912;28;47073;-77
2023/09/29 08:42:40;;;;;;;;;6.67;4.67;;;;;;;;5019407;28;46498;-78
2023/09/29 08:45:07;;;;;;;;;3.25;3.00;;;;;;;;5020418;28;45293;-77
2023/09/29 08:47:34;;;;;;;;;1.75;1.75;;;;;;;;5019962;28;45395;-77
2023/09/29 08:50:00;;;;;;;;;5.67;5.00;;;;;;;;5020755;28;46124;-77
2023/09/29 08:52:28;;;;;;;;;2.00;2.00;;;;;;;;5020947;28;45388;-77
2023/09/29 08:54:53;;;;;;;;;13.33;7.33;;;;;;;;5002703;28;45853;-77
2023/09/29 08:57:19;;;;;;;;;0.00;0.00;;;;;;;;5021008;28;45458;-77
2023/09/29 08:59:45;;;;;;;;;3.33;2.00;;;;;;;;5020196;28;45282;-78
2023/09/29 09:02:10;;;;;;;;;3.75;3.75;;;;;;;;5003188;28;47249;-77
2023/09/29 09:04:35;;;;;;;;;0.75;0.75;;;;;;;;5022177;28;45338;-76
2023/09/29 09:07:02;;;;;;;;;3.25;1.00;;;;;;;;5020972;28;45345;-76
2023/09/29 09:09:27;;;;;;;;;7.67;5.00;;;;;;;;5020780;28;45432;-76
2023/09/29 09:11:53;;;;;;;;;0.25;0.25;;;;;;;;5002790;28;47291;-77
2023/09/29 09:14:18;;;;;;;;;10.00;8.00;;;;;;;;5020632;28;45278;-79
2023/09/29 09:16:45;;;;;;;;;0.75;0.00;;;;;;;;5021245;28;45360;-78
2023/09/29 09:19:14;;;;;;;;;0.00;0.00;;;;;;;;5002808;28;47248;-79
2023/09/29 09:21:40;;;;;;;;;6.25;3.00;;;;;;;;5020548;28;45221;-78
2023/09/29 09:24:22;;;;;;;;;0.75;0.00;;;;;;;;5020501;28;45262;-77
2023/09/29 09:26:48;;;;;;;;;4.75;2.50;;;;;;;;5020753;28;45483;-77
2023/09/29 09:29:16;;;;;;;;;4.00;2.50;;;;;;;;5020397;28;45283;-76
2023/09/29 09:31:45;;;;;;;;;0.00;0.00;;;;;;;;5019259;28;45404;-76
2023/09/29 09:34:12;;;;;;;;;0.00;0.00;;;;;;;;5023317;28;45339;-77
2023/09/29 09:36:49;;;;;;;;;4.25;2.75;;;;;;;;5022094;28;45954;-77
2023/09/29 09:39:15;;;;;;;;;0.00;0.00;;;;;;;;5040259;28;45237;-76
2023/09/29 09:41:42;;;;;;;;;0.00;0.00;;;;;;;;5038514;28;45533;-77
2023/09/29 09:44:07;;;;;;;;;0.00;0.00;;;;;;;;5022244;28;45397;-76
2023/09/29 09:46:33;;;;;;;;;0.00;0.00;;;;;;;;5004556;28;45374;-79
2023/09/29 09:49:08;;;;;;;;;0.00;0.00;;;;;;;;5036846;28;45313;-81
2023/09/29 09:51:38;;;;;;;;;0.00;0.00;;;;;;;;5038592;28;45331;-78
2023/09/29 09:54:04;;;;;;;;;0.00;0.00;;;;;;;;5039656;28;45288;-77
2023/09/29 09:56:55;;;;;;;;;0.00;0.00;;;;;;;;5040188;28;45253;-79
2023/09/29 09:59:21;;;;;;;;;0.00;0.00;;;;;;;;5036466;28;45358;-78
2023/09/29 10:01:48;;;;;;;;;1.25;1.25;;;;;;;;5021770;28;47087;-78
2023/09/29 10:04:14;;;;;;;;;1.25;0.00;;;;;;;;5038344;28;45314;-79
2023/09/29 10:06:39;;;;;;;;;0.00;0.00;;;;;;;;5038925;28;45186;-77
2023/09/29 10:09:10;;;;;;;;;2.00;2.00;;;;;;;;5040053;28;45285;-77
2023/09/29 10:11:35;;;;;;;;;0.00;0.00;;;;;;;;5030114;28;48416;-78
2023/09/29 10:14:02;;;;;;;;;0.00;0.00;;;;;;;;5040346;28;45270;-77
2023/09/29 10:16:28;;;;;;;;;1.75;1.00;;;;;;;;5040041;28;45247;-80
2023/09/29 10:18:54;;;;;;;;;1.00;1.00;;;;;;;;5039558;28;45468;-77
2023/09/29 10:21:20;;;;;;;;;0.00;0.00;;;;;;;;5039782;28;46042;-77
2023/09/29 10:23:45;;;;;;;;;0.00;0.00;;;;;;;;5038398;28;45309;-77
2023/09/29 10:26:11;;;;;;;;;0.00;0.00;;;;;;;;5022102;28;45249;-75
2023/09/29 10:28:39;;;;;;;;;0.00;0.00;;;;;;;;5039430;28;45404;-75
2023/09/29 10:31:13;;;;;;;;;0.50;0.50;;;;;;;;5019881;28;46578;-76
2023/09/29 10:33:52;;;;;;;;;0.00;0.00;;;;;;;;5019712;28;45392;-76
2023/09/29 10:36:18;;;;;;;;;0.00;0.00;;;;;;;;5035809;28;45499;-77
2023/09/29 10:38:43;;;;;;;;;1.00;0.00;;;;;;;;5021176;28;47471;-76
2023/09/29 10:41:09;;;;;;;;;0.00;0.00;;;;;;;;5038907;28;46493;-76
2023/09/29 10:43:36;;;;;;;;;2.50;2.50;;;;;;;;5020836;28;45428;-76
2023/09/29 10:46:10;;;;;;;;;0.00;0.00;;;;;;;;5039530;28;45289;-78
2023/09/29 10:48:54;;;;;;;;;4.00;1.25;;;;;;;;5039134;28;45367;-79
2023/09/29 10:51:25;;;;;;;;;0.50;0.00;;;;;;;;5039148;28;46156;-76
2023/09/29 10:53:51;;;;;;;;;0.00;0.00;;;;;;;;5039623;28;45465;-75
2023/09/29 10:56:18;;;;;;;;;10.33;9.67;;;;;;;;5039106;28;45478;-76
2023/09/29 10:58:44;;;;;;;;;1.00;1.00;;;;;;;;5041219;28;45253;-78
2023/09/29 11:01:11;;;;;;;;;2.75;2.75;;;;;;;;5046419;28;45221;-78
2023/09/29 11:03:36;;;;;;;;;1.25;1.25;;;;;;;;5028148;28;45486;-81
2023/09/29 11:06:08;;;;;;;;;2.00;0.00;;;;;;;;5049149;28;45407;-79
2023/09/29 11:08:34;;;;;;;;;20.33;15.33;;;;;;;;5050300;28;45312;-79
2023/09/29 11:11:00;;;;;;;;;2.25;2.25;;;;;;;;5032617;28;48512;-78
2023/09/29 11:13:26;;;;;;;;;31.67;19.00;;;;;;;;5052705;28;45345;-79
2023/09/29 11:15:51;;;;;;;;;2.00;2.00;;;;;;;;5049945;28;45284;-79
2023/09/29 11:18:30;;;;;;;;;2.50;2.50;;;;;;;;5029815;28;47266;-78
2023/09/29 11:20:58;;;;;;;;;2.00;2.00;;;;;;;;5040825;28;48275;-79
2023/09/29 11:23:24;;;;;;;;;7.00;5.75;;;;;;;;5041201;28;45240;-78
2023/09/29 11:25:49;;;;;;;;;3.00;3.00;;;;;;;;5043237;28;45275;-78
2023/09/29 11:28:15;;;;;;;;;11.50;6.75;;;;;;;;5042143;28;45996;-76
2023/09/29 11:30:41;;;;;;;;;2.50;2.00;;;;;;;;5042941;28;47079;-77
2023/09/29 11:33:09;;;;;;;;;2.50;2.00;;;;;;;;5042762;28;45721;-76
2023/09/29 11:35:34;;;;;;;;;6.25;5.00;;;;;;;;5043775;28;45451;-76
2023/09/29 11:37:59;;;;;;;;;5.75;4.50;;;;;;;;5041397;28;46276;-76
2023/09/29 11:40:26;;;;;;;;;4.25;4.25;;;;;;;;5044965;28;45568;-77
2023/09/29 11:42:51;;;;;;;;;2.75;2.00;;;;;;;;5031894;28;45358;-77
2023/09/29 11:45:16;;;;;;;;;3.25;3.00;;;;;;;;5028318;28;45246;-77
2023/09/29 11:47:42;;;;;;;;;1.75;1.75;;;;;;;;5045854;28;45952;-78
2023/09/29 11:50:08;;;;;;;;;1.00;1.00;;;;;;;;5026183;28;47297;-78
2023/09/29 11:52:34;;;;;;;;;0.25;0.25;;;;;;;;5030826;28;45238;-78
2023/09/29 11:54:59;;;;;;;;;4.75;3.25;;;;;;;;5040588;28;45602;-78
2023/09/29 11:57:24;;;;;;;;;2.00;2.00;;;;;;;;5042960;28;45458;-78
2023/09/29 11:59:49;;;;;;;;;2.75;2.50;;;;;;;;5041920;28;45329;-78
2023/09/29 12:02:15;;;;;;;;;2.00;2.00;;;;;;;;5041807;28;45324;-78
2023/09/29 12:04:40;;;;;;;;;2.75;2.25;;;;;;;;5042812;28;45400;-77
2023/09/29 12:07:05;;;;;;;;;2.25;1.50;;;;;;;;5042897;28;45587;-77
2023/09/29 12:09:30;;;;;;;;;8.75;6.25;;;;;;;;5041154;28;45383;-76
2023/09/29 12:11:55;;;;;;;;;0.75;0.75;;;;;;;;5041896;28;45443;-76
2023/09/29 12:14:21;;;;;;;;;2.75;2.75;;;;;;;;5032502;28;45542;-77
2023/09/29 12:16:46;;;;;;;;;3.00;2.00;;;;;;;;5039138;28;45387;-79
2023/09/29 12:19:12;;;;;;;;;4.00;2.75;;;;;;;;5028347;28;47160;-78
2023/09/29 12:21:38;;;;;;;;;3.25;1.25;;;;;;;;5031716;28;45476;-81
2023/09/29 12:24:04;;;;;;;;;3.00;3.00;;;;;;;;5040069;28;45622;-79
2023/09/29 12:26:29;;;;;;;;;2.00;2.00;;;;;;;;5043622;28;45716;-79
2023/09/29 12:28:54;;;;;;;;;1.75;1.00;;;;;;;;5045265;28;46993;-81
2023/09/29 12:31:20;;;;;;;;;3.50;3.50;;;;;;;;5043031;28;45344;-80
2023/09/29 12:33:45;;;;;;;;;2.50;2.25;;;;;;;;5043962;28;45322;-81
2023/09/29 12:36:10;;;;;;;;;5.75;4.50;;;;;;;;5042073;28;45396;-81
2023/09/29 12:38:36;;;;;;;;;0.75;0.75;;;;;;;;5023057;28;48359;-80
2023/09/29 12:41:01;;;;;;;;;1.75;1.75;;;;;;;;5042037;28;45331;-80
2023/09/29 12:43:26;;;;;;;;;2.00;2.00;;;;;;;;5027900;28;45242;-81
2023/09/29 12:45:51;;;;;;;;;2.00;2.00;;;;;;;;5027134;28;45578;-83
2023/09/29 12:48:17;;;;;;;;;3.25;1.25;;;;;;;;5041626;28;46675;-80
2023/09/29 12:50:43;;;;;;;;;4.50;3.25;;;;;;;;5026063;28;45990;-82
2023/09/29 12:53:08;;;;;;;;;1.00;1.00;;;;;;;;5045277;28;45215;-79
2023/09/29 12:55:33;;;;;;;;;6.00;4.00;;;;;;;;5041139;28;45449;-79
2023/09/29 12:58:06;;;;;;;;;7.33;5.33;;;;;;;;5026307;28;47409;-79
2023/09/29 13:00:34;;;;;;;;;8.00;5.75;;;;;;;;5048334;28;45305;-80
2023/09/29 13:03:04;;;;;;;;;3.00;3.00;;;;;;;;5037296;28;45408;-81
2023/09/29 13:05:29;;;;;;;;;5.00;5.00;;;;;;;;5009596;28;46129;-82
2023/09/29 13:07:56;;;;;;;;;3.50;3.50;;;;;;;;5010347;28;47184;-79
2023/09/29 13:10:22;;;;;;;;;4.75;4.75;;;;;;;;5037933;28;45409;-78
2023/09/29 13:12:54;;;;;;;;;5.75;4.75;;;;;;;;5039407;28;45467;-80
2023/09/29 13:15:21;;;;;;;;;7.33;7.00;;;;;;;;5041648;28;45344;-81
2023/09/29 13:17:46;;;;;;;;;6.67;5.67;;;;;;;;5032476;28;45474;-80
2023/09/29 13:20:12;;;;;;;;;3.00;3.00;;;;;;;;5040295;28;45376;-80
2023/09/29 13:22:38;;;;;;;;;2.75;2.75;;;;;;;;5037818;28;45352;-81
2023/09/29 13:25:04;;;;;;;;;4.75;4.75;;;;;;;;5011664;28;46231;-82
2023/09/29 13:27:32;;;;;;;;;4.67;4.33;;;;;;;;5010481;28;47744;-82
2023/09/29 13:29:57;;;;;;;;;5.00;3.50;;;;;;;;5034236;28;45530;-82
2023/09/29 13:32:22;;;;;;;;;4.75;3.75;;;;;;;;5014023;28;45325;-80
2023/09/29 13:34:47;;;;;;;;;4.25;3.50;;;;;;;;5020101;28;45367;-81
2023/09/29 13:37:17;;;;;;;;;4.25;4.25;;;;;;;;5020504;28;45363;-81
2023/09/29 13:39:42;;;;;;;;;7.00;6.75;;;;;;;;5023128;28;45526;-80
2023/09/29 13:42:08;;;;;;;;;2.50;2.50;;;;;;;;5028538;28;45318;-78
2023/09/29 13:44:33;;;;;;;;;7.75;6.75;;;;;;;;5022813;28;47031;-79
2023/09/29 13:46:58;;;;;;;;;9.25;8.00;;;;;;;;5036160;28;45384;-80
2023/09/29 13:49:24;;;;;;;;;6.00;4.25;;;;;;;;5019709;28;45313;-79
2023/09/29 13:51:49;;;;;;;;;5.50;4.25;;;;;;;;5002590;28;45278;-79
2023/09/29 13:54:14;;;;;;;;;3.50;2.00;;;;;;;;5035463;28;45405;-76
2023/09/29 13:56:40;;;;;;;;;6.50;5.00;;;;;;;;5039219;28;45257;-77
2023/09/29 13:59:05;;;;;;;;;2.25;2.25;;;;;;;;5039690;28;45203;-78
2023/09/29 14:01:30;;;;;;;;;6.25;6.00;;;;;;;;5021929;28;45267;-76
2023/09/29 14:03:58;;;;;;;;;4.25;4.25;;;;;;;;5021473;28;45886;-76
2023/09/29 14:06:23;;;;;;;;;13.00;11.33;;;;;;;;5039756;28;46011;-77
2023/09/29 14:08:48;;;;;;;;;6.00;4.50;;;;;;;;5039070;28;45491;-77
2023/09/29 14:11:13;;;;;;;;;5.25;5.25;;;;;;;;5039964;28;45305;-77
2023/09/29 14:13:38;;;;;;;;;4.75;3.50;;;;;;;;5039863;28;45340;-77
2023/09/29 14:16:05;;;;;;;;;7.50;6.00;;;;;;;;5039668;28;46346;-78
2023/09/29 14:18:30;;;;;;;;;3.50;3.50;;;;;;;;5039574;28;45335;-78
2023/09/29 14:20:55;;;;;;;;;3.75;3.50;;;;;;;;5039751;28;45349;-77
2023/09/29 14:23:21;;;;;;;;;7.00;5.50;;;;;;;;5039556;28;45274;-77
2023/09/29 14:25:47;;;;;;;;;5.25;4.75;;;;;;;;5039595;28;46554;-78
2023/09/29 14:28:12;;;;;;;;;7.75;5.75;;;;;;;;5039769;28;45284;-77
2023/09/29 14:30:37;;;;;;;;;6.25;6.25;;;;;;;;5039564;28;45674;-78
2023/09/29 14:33:04;;;;;;;;;4.00;4.00;;;;;;;;5036347;28;47027;-77